Time;durP1;ratioP1;P1;durP2;ratioP2;P2;SDS_P1;SDS_P2;PMS_P1;PMS_P2;Temp;Humidity;BMP_temperature;BMP_pressure;BME280_temperature;BME280_humidity;BME280_pressure;Samples;Min_cycle;Max_cycle;Signal;HPM_P1;HPM_P2
2021/01/29 00:01:03;;;;;;;3.43;1.10;;;11.40;99.90;;;;;;5101165;28;20474;-82
2021/01/29 00:03:30;;;;;;;3.50;1.20;;;11.30;99.90;;;;;;5100198;28;20485;-82
2021/01/29 00:06:02;;;;;;;2.87;1.00;;;11.30;99.90;;;;;;5104751;28;20455;-81
2021/01/29 00:08:28;;;;;;;3.20;0.87;;;11.10;99.90;;;;;;5092483;28;20501;-82
2021/01/29 00:10:54;;;;;;;3.73;1.00;;;11.20;99.90;;;;;;5102957;28;20489;-82
2021/01/29 00:13:23;;;;;;;5.00;1.37;;;11.20;99.90;;;;;;5103446;28;20458;-82
2021/01/29 00:15:51;;;;;;;2.80;1.03;;;11.20;99.90;;;;;;5108431;28;20455;-81
2021/01/29 00:18:18;;;;;;;3.70;1.00;;;11.10;99.90;;;;;;5109403;28;20514;-84
2021/01/29 00:20:44;;;;;;;3.53;1.50;;;11.10;99.90;;;;;;5111503;28;20486;-80
2021/01/29 00:23:11;;;;;;;3.70;1.20;;;11.00;99.90;;;;;;5109321;28;20478;-82
2021/01/29 00:25:40;;;;;;;2.80;1.33;;;11.00;99.90;;;;;;5114938;28;20454;-81
2021/01/29 00:28:07;;;;;;;2.70;1.03;;;11.00;99.90;;;;;;5113048;28;20542;-80
2021/01/29 00:30:35;;;;;;;3.50;1.50;;;11.00;99.90;;;;;;5107239;28;20449;-81
2021/01/29 00:33:06;;;;;;;3.70;1.20;;;10.90;99.90;;;;;;5105775;28;20458;-81
2021/01/29 00:35:33;;;;;;;4.43;1.17;;;11.00;99.90;;;;;;5107120;28;20426;-81
2021/01/29 00:38:00;;;;;;;2.47;1.10;;;10.90;99.90;;;;;;5102699;28;20479;-80
2021/01/29 00:40:27;;;;;;;3.30;1.33;;;10.90;99.90;;;;;;5093594;28;20501;-81
2021/01/29 00:42:54;;;;;;;2.77;1.00;;;10.80;99.90;;;;;;5103466;28;20477;-81
2021/01/29 00:45:23;;;;;;;2.70;0.87;;;10.80;99.90;;;;;;5103122;28;20451;-80
2021/01/29 00:47:49;;;;;;;2.50;0.93;;;10.90;99.90;;;;;;5101219;28;21177;-81
2021/01/29 00:50:17;;;;;;;2.43;0.93;;;10.90;99.90;;;;;;5097646;28;20530;-82
2021/01/29 00:52:43;;;;;;;2.90;0.93;;;10.90;99.90;;;;;;5096171;28;20426;-81
2021/01/29 00:55:11;;;;;;;5.00;1.13;;;10.90;99.90;;;;;;5095393;28;20443;-82
2021/01/29 00:57:38;;;;;;;2.67;0.90;;;10.80;99.90;;;;;;5095558;28;20514;-82
2021/01/29 01:00:08;;;;;;;2.73;0.87;;;10.80;99.90;;;;;;5095294;28;20498;-81
2021/01/29 01:02:35;;;;;;;3.50;0.90;;;10.80;99.90;;;;;;5095202;28;20785;-82
2021/01/29 01:05:01;;;;;;;3.53;0.87;;;10.80;99.90;;;;;;5095555;28;20462;-81
2021/01/29 01:07:29;;;;;;;3.37;1.10;;;10.80;99.90;;;;;;5094684;28;20546;-82
2021/01/29 01:09:56;;;;;;;2.65;0.90;;;10.80;99.90;;;;;;5095087;28;20454;-82
2021/01/29 01:12:22;;;;;;;3.28;0.90;;;10.90;99.90;;;;;;5095422;28;20614;-82
2021/01/29 01:14:49;;;;;;;3.00;0.93;;;11.00;99.90;;;;;;5095325;28;20628;-82
2021/01/29 01:17:15;;;;;;;2.83;1.27;;;11.00;99.90;;;;;;5094312;28;20562;-81
2021/01/29 01:19:42;;;;;;;2.73;1.10;;;11.00;99.90;;;;;;5094124;28;20519;-80
2021/01/29 01:22:08;;;;;;;2.60;0.80;;;11.00;99.90;;;;;;5094382;28;20417;-81
2021/01/29 01:24:39;;;;;;;2.73;1.13;;;11.10;99.90;;;;;;5095037;28;20864;-81
2021/01/29 01:27:06;;;;;;;2.30;0.77;;;11.00;99.90;;;;;;5094885;28;20483;-80
2021/01/29 01:29:33;;;;;;;2.47;0.97;;;11.00;99.90;;;;;;5108680;28;20426;-82
2021/01/29 01:31:59;;;;;;;3.23;1.20;;;11.00;99.90;;;;;;5101449;28;20450;-82
2021/01/29 01:34:25;;;;;;;2.50;0.93;;;11.00;99.90;;;;;;5081717;28;20970;-84
2021/01/29 01:36:52;;;;;;;2.43;0.90;;;11.00;99.90;;;;;;5100967;28;20487;-82
2021/01/29 01:39:19;;;;;;;2.73;1.00;;;10.90;99.90;;;;;;5102839;28;20471;-81
2021/01/29 01:41:46;;;;;;;2.83;1.20;;;10.90;99.90;;;;;;5103728;28;20456;-82
2021/01/29 01:44:31;;;;;;;4.33;1.27;;;10.80;99.90;;;;;;5104443;28;20436;-80
2021/01/29 01:47:02;;;;;;;2.60;1.10;;;10.80;99.90;;;;;;5117562;28;20474;-80
2021/01/29 01:49:29;;;;;;;4.20;1.20;;;10.90;99.90;;;;;;5104788;28;20459;-82
2021/01/29 01:52:01;;;;;;;2.70;1.10;;;10.80;99.90;;;;;;5090024;28;20414;-83
2021/01/29 01:54:43;;;;;;;2.90;1.07;;;10.80;99.90;;;;;;5099340;28;20463;-83
2021/01/29 01:57:13;;;;;;;2.20;0.90;;;10.80;99.90;;;;;;5104201;28;20451;-83
2021/01/29 01:59:44;;;;;;;3.30;1.10;;;10.80;99.90;;;;;;5103466;28;20516;-81
2021/01/29 02:02:12;;;;;;;2.83;1.20;;;10.90;99.90;;;;;;5116922;28;20462;-81
2021/01/29 02:04:43;;;;;;;3.10;1.10;;;10.90;99.90;;;;;;5110846;28;20439;-80
2021/01/29 02:07:28;;;;;;;2.40;1.20;;;10.90;99.90;;;;;;5111523;28;20463;-80
2021/01/29 02:09:58;;;;;;;2.90;1.20;;;10.90;99.90;;;;;;5114572;28;20497;-80
2021/01/29 02:12:25;;;;;;;5.50;1.33;;;10.70;99.90;;;;;;5107063;28;20443;-83
2021/01/29 02:14:52;;;;;;;2.63;1.10;;;10.70;99.90;;;;;;5080795;28;21035;-83
2021/01/29 02:17:39;;;;;;;2.63;1.00;;;10.70;99.90;;;;;;5098927;28;20249;-83
2021/01/29 02:20:37;;;;;;;3.13;1.27;;;10.70;99.90;;;;;;5066044;28;20245;-82
2021/01/29 02:24:01;;;;;;;3.00;1.20;;;10.80;99.90;;;;;;5073814;28;20198;-82
2021/01/29 02:26:57;;;;;;;2.50;1.03;;;10.70;99.90;;;;;;5089535;28;20493;-82
2021/01/29 02:29:49;;;;;;;3.63;1.20;;;10.80;99.90;;;;;;5098890;28;20435;-80
2021/01/29 02:32:48;;;;;;;2.30;1.00;;;10.80;99.90;;;;;;5099245;28;20436;-81
2021/01/29 02:35:35;;;;;;;2.50;1.07;;;10.70;99.90;;;;;;5051195;28;20455;-82
2021/01/29 02:38:33;;;;;;;2.23;0.93;;;10.70;99.90;;;;;;5091710;28;20467;-81
2021/01/29 02:41:08;;;;;;;2.90;1.23;;;10.70;99.90;;;;;;5081414;28;20810;-83
2021/01/29 02:43:50;;;;;;;2.20;0.80;;;10.70;99.90;;;;;;5086534;28;20435;-83
2021/01/29 02:46:28;;;;;;;2.97;0.90;;;10.80;99.90;;;;;;5085965;28;20478;-83
2021/01/29 02:49:02;;;;;;;2.60;0.50;;;10.80;99.90;;;;;;5087066;28;20196;-83
2021/01/29 02:51:35;;;;;;;4.47;1.20;;;10.80;99.90;;;;;;5074449;28;20448;-82
2021/01/29 02:54:11;;;;;;;2.10;0.70;;;10.80;99.90;;;;;;5093859;28;20443;-83
2021/01/29 02:56:45;;;;;;;2.53;0.70;;;10.70;99.90;;;;;;5079584;28;20472;-83
2021/01/29 02:59:30;;;;;;;2.40;0.90;;;10.80;99.90;;;;;;5095968;28;20553;-83
2021/01/29 03:02:00;;;;;;;2.50;0.77;;;10.70;99.90;;;;;;5100724;28;20418;-82
2021/01/29 03:04:31;;;;;;;2.37;0.80;;;10.80;99.90;;;;;;5095800;28;20913;-81
2021/01/29 03:07:04;;;;;;;2.00;0.60;;;10.80;99.90;;;;;;5093110;28;20829;-82
2021/01/29 03:09:34;;;;;;;2.00;0.60;;;10.80;99.90;;;;;;5092587;28;20915;-82
2021/01/29 03:12:06;;;;;;;2.87;0.80;;;10.80;99.90;;;;;;5092112;28;20441;-81
2021/01/29 03:14:39;;;;;;;2.40;0.70;;;10.80;99.90;;;;;;5093298;28;20440;-80
2021/01/29 03:17:10;;;;;;;2.10;0.70;;;10.70;99.90;;;;;;5079411;28;20547;-81
2021/01/29 03:19:42;;;;;;;2.30;0.70;;;10.80;99.90;;;;;;5073032;28;20472;-83
2021/01/29 03:22:14;;;;;;;2.73;0.70;;;10.80;99.90;;;;;;5081838;28;20444;-82
2021/01/29 03:24:44;;;;;;;3.17;0.70;;;10.90;99.90;;;;;;5079120;28;20558;-81
2021/01/29 03:27:15;;;;;;;2.20;0.70;;;10.90;99.90;;;;;;5092032;28;20566;-82
2021/01/29 03:29:45;;;;;;;2.03;0.60;;;10.90;99.90;;;;;;5093299;28;20485;-82
2021/01/29 03:32:15;;;;;;;2.50;1.10;;;10.90;99.90;;;;;;5094954;28;20558;-83
2021/01/29 03:34:47;;;;;;;2.67;0.70;;;10.90;99.90;;;;;;5083980;28;20438;-82
2021/01/29 03:37:19;;;;;;;2.23;0.87;;;11.00;99.90;;;;;;5093833;28;21068;-82
2021/01/29 03:39:46;;;;;;;2.47;0.70;;;11.10;99.90;;;;;;5097358;28;20481;-82
2021/01/29 03:42:30;;;;;;;2.30;0.60;;;11.10;99.90;;;;;;5099155;28;20483;-82
2021/01/29 03:45:06;;;;;;;2.40;0.70;;;11.10;99.90;;;;;;5078527;28;20459;-83
2021/01/29 03:47:36;;;;;;;2.50;0.90;;;11.00;99.90;;;;;;5104402;28;20531;-81
2021/01/29 03:50:15;;;;;;;2.10;0.70;;;11.00;99.90;;;;;;5104383;28;20461;-82
2021/01/29 03:52:50;;;;;;;2.40;0.80;;;10.90;99.90;;;;;;5091286;28;20462;-82
2021/01/29 03:55:27;;;;;;;2.97;0.70;;;11.00;99.90;;;;;;5105156;28;20462;-82
2021/01/29 03:58:01;;;;;;;2.77;0.70;;;11.10;99.90;;;;;;5106546;28;20467;-80
2021/01/29 04:00:36;;;;;;;2.80;0.77;;;11.10;99.90;;;;;;5108983;28;20481;-81
2021/01/29 04:03:09;;;;;;;2.10;0.60;;;11.20;99.90;;;;;;5103919;28;20423;-82
2021/01/29 04:05:45;;;;;;;2.40;0.63;;;11.20;99.90;;;;;;5083714;28;20445;-80
2021/01/29 04:08:17;;;;;;;2.03;0.63;;;11.10;99.90;;;;;;5086402;28;20524;-81
2021/01/29 04:10:48;;;;;;;2.40;0.73;;;11.20;99.90;;;;;;5102755;28;20980;-83
2021/01/29 04:13:18;;;;;;;2.10;0.60;;;11.20;99.90;;;;;;5095962;28;20434;-83
2021/01/29 04:15:47;;;;;;;1.90;0.60;;;11.20;99.90;;;;;;5089823;28;20461;-82
2021/01/29 04:18:19;;;;;;;2.63;0.70;;;11.10;99.90;;;;;;5103980;28;20438;-82
2021/01/29 04:20:49;;;;;;;4.03;0.80;;;11.00;99.90;;;;;;5112199;28;20459;-81
2021/01/29 04:23:20;;;;;;;1.90;0.60;;;11.10;99.90;;;;;;5117722;28;20504;-82
2021/01/29 04:25:59;;;;;;;2.27;0.70;;;10.90;99.90;;;;;;5105877;28;20437;-82
2021/01/29 04:28:29;;;;;;;2.30;0.70;;;10.90;99.90;;;;;;5097996;28;20406;-82
2021/01/29 04:31:01;;;;;;;2.73;0.87;;;10.90;99.90;;;;;;5103101;28;20997;-83
2021/01/29 04:33:32;;;;;;;2.30;0.70;;;10.90;99.90;;;;;;5091594;28;20467;-82
2021/01/29 04:36:02;;;;;;;2.30;0.87;;;10.90;99.90;;;;;;5084568;28;20541;-83
2021/01/29 04:38:38;;;;;;;2.10;0.50;;;10.90;99.90;;;;;;5096069;28;20949;-83
2021/01/29 04:41:21;;;;;;;2.97;0.60;;;10.90;99.90;;;;;;5088491;28;20448;-83
2021/01/29 04:44:19;;;;;;;1.83;0.47;;;10.90;99.90;;;;;;5083147;28;20466;-83
2021/01/29 04:47:03;;;;;;;1.90;0.40;;;10.90;99.90;;;;;;5083509;28;20464;-80
2021/01/29 04:49:42;;;;;;;2.63;0.90;;;10.90;99.90;;;;;;5090074;28;20453;-82
2021/01/29 04:52:41;;;;;;;2.33;0.73;;;10.80;99.90;;;;;;5097407;28;20425;-81
2021/01/29 04:55:30;;;;;;;2.77;0.73;;;10.80;99.90;;;;;;5095318;28;20539;-82
2021/01/29 04:58:01;;;;;;;2.30;0.67;;;10.80;99.90;;;;;;5096845;28;20491;-81
2021/01/29 05:00:53;;;;;;;1.93;0.50;;;10.70;99.90;;;;;;5092608;28;20494;-82
2021/01/29 05:03:46;;;;;;;3.07;0.50;;;10.60;99.90;;;;;;5108031;28;20770;-83
2021/01/29 05:06:36;;;;;;;3.07;0.83;;;10.70;99.90;;;;;;5095960;28;20480;-82
2021/01/29 05:09:31;;;;;;;2.30;0.60;;;10.70;99.90;;;;;;5100334;28;20506;-83
2021/01/29 05:12:30;;;;;;;2.90;0.90;;;10.60;99.90;;;;;;5104685;28;20454;-81
2021/01/29 05:15:28;;;;;;;2.60;0.70;;;10.60;99.90;;;;;;5116393;28;20426;-80
2021/01/29 05:18:27;;;;;;;2.00;0.60;;;10.20;99.90;;;;;;5094230;28;20487;-81
2021/01/29 05:21:16;;;;;;;2.77;0.67;;;10.50;99.90;;;;;;5104052;28;20447;-81
2021/01/29 05:24:11;;;;;;;2.40;0.70;;;10.60;99.90;;;;;;5109793;28;20466;-82
2021/01/29 05:27:10;;;;;;;2.27;0.67;;;10.60;99.90;;;;;;5095675;28;20522;-82
2021/01/29 05:29:52;;;;;;;2.83;0.63;;;10.60;99.90;;;;;;5097114;28;20462;-82
2021/01/29 05:32:57;;;;;;;2.10;0.60;;;10.70;99.90;;;;;;5107253;28;20538;-82
2021/01/29 05:35:35;;;;;;;2.00;0.70;;;10.50;99.90;;;;;;5085832;28;20448;-82
2021/01/29 05:38:27;;;;;;;2.83;0.60;;;10.60;99.90;;;;;;5103061;28;20509;-82
2021/01/29 05:41:26;;;;;;;2.80;0.60;;;10.60;99.90;;;;;;5101107;28;20411;-80
2021/01/29 05:44:39;;;;;;;2.00;0.60;;;10.60;99.90;;;;;;5101325;28;20458;-81
2021/01/29 05:47:29;;;;;;;3.53;0.60;;;10.60;99.90;;;;;;5095506;28;20466;-81
2021/01/29 05:50:09;;;;;;;1.97;0.60;;;10.30;99.90;;;;;;5083053;28;20445;-80
2021/01/29 05:53:03;;;;;;;3.20;0.70;;;10.40;99.90;;;;;;5093830;28;20504;-82
2021/01/29 05:55:42;;;;;;;2.10;0.60;;;10.40;99.90;;;;;;5094904;28;20481;-80
2021/01/29 05:58:18;;;;;;;3.17;0.70;;;10.40;99.90;;;;;;5094946;28;20535;-81
2021/01/29 06:01:24;;;;;;;2.28;0.85;;;10.30;99.90;;;;;;5097037;28;20566;-80
2021/01/29 06:04:06;;;;;;;2.23;0.70;;;10.20;99.90;;;;;;5057912;28;20617;-81
2021/01/29 06:06:54;;;;;;;2.50;0.63;;;10.20;99.90;;;;;;5089929;28;20619;-82
2021/01/29 06:09:46;;;;;;;2.10;0.57;;;9.90;99.90;;;;;;5077798;28;20440;-82
2021/01/29 06:12:47;;;;;;;1.90;0.50;;;10.30;99.90;;;;;;5092001;28;20471;-80
2021/01/29 06:15:49;;;;;;;2.33;0.80;;;10.10;99.90;;;;;;5107010;28;20482;-81
2021/01/29 06:18:35;;;;;;;2.10;0.70;;;10.30;99.90;;;;;;5095217;28;20497;-81
2021/01/29 06:21:34;;;;;;;2.20;0.70;;;10.40;99.90;;;;;;5074051;28;20923;-81
2021/01/29 06:24:31;;;;;;;2.50;0.50;;;10.40;99.90;;;;;;5076173;28;20468;-83
2021/01/29 06:27:26;;;;;;;5.37;1.50;;;10.10;99.90;;;;;;5074350;28;20484;-80
2021/01/29 06:30:16;;;;;;;2.43;0.70;;;10.30;99.90;;;;;;5088553;28;20531;-83
2021/01/29 06:33:15;;;;;;;3.90;0.90;;;10.30;99.90;;;;;;5091927;28;20459;-81
2021/01/29 06:36:11;;;;;;;4.70;0.70;;;10.40;99.90;;;;;;5081268;28;20443;-82
2021/01/29 06:38:59;;;;;;;2.10;0.60;;;10.40;99.90;;;;;;5081211;28;20440;-82
2021/01/29 06:41:49;;;;;;;2.53;0.73;;;10.30;99.90;;;;;;5044269;28;20594;-82
2021/01/29 06:44:28;;;;;;;3.77;0.93;;;10.30;99.90;;;;;;5080548;28;20481;-83
2021/01/29 06:47:09;;;;;;;2.43;0.87;;;10.40;99.90;;;;;;5104170;28;20599;-81
2021/01/29 06:50:02;;;;;;;2.27;0.70;;;10.40;99.90;;;;;;5099011;28;20432;-79
2021/01/29 06:52:58;;;;;;;3.13;0.95;;;10.50;99.90;;;;;;5107153;28;20471;-82
2021/01/29 06:56:18;;;;;;;2.50;0.83;;;10.60;99.90;;;;;;5112281;28;20242;-81
2021/01/29 06:59:09;;;;;;;3.30;0.83;;;10.70;99.90;;;;;;5034932;28;20460;-82
2021/01/29 07:02:05;;;;;;;2.77;0.77;;;10.70;99.90;;;;;;5035061;28;20940;-83
2021/01/29 07:05:09;;;;;;;2.90;0.60;;;10.70;99.90;;;;;;5093402;28;20480;-81
2021/01/29 07:08:10;;;;;;;2.87;1.40;;;10.70;99.90;;;;;;5095030;28;20466;-81
2021/01/29 07:10:51;;;;;;;2.40;0.77;;;10.80;99.90;;;;;;5087009;28;20455;-83
2021/01/29 07:13:37;;;;;;;2.30;0.90;;;10.80;99.90;;;;;;5114064;28;20416;-83
2021/01/29 07:16:20;;;;;;;2.23;0.67;;;10.70;99.90;;;;;;5111860;28;20447;-81
2021/01/29 07:19:18;;;;;;;2.20;0.67;;;10.70;99.90;;;;;;5115799;28;20519;-81
2021/01/29 07:22:39;;;;;;;2.43;0.50;;;10.80;99.90;;;;;;5114282;28;20450;-80
2021/01/29 07:25:10;;;;;;;1.90;0.50;;;10.80;99.90;;;;;;5080532;28;20422;-83
2021/01/29 07:27:45;;;;;;;2.73;0.50;;;10.90;99.90;;;;;;5107757;28;20483;-80
2021/01/29 07:31:00;;;;;;;2.23;0.60;;;10.80;99.90;;;;;;5095622;28;20685;-80
2021/01/29 07:33:34;;;;;;;2.00;0.50;;;11.00;99.90;;;;;;5006687;28;20451;-83
2021/01/29 07:36:18;;;;;;;2.27;0.60;;;11.00;99.90;;;;;;5086706;28;20579;-82
2021/01/29 07:39:38;;;;;;;2.60;0.57;;;11.10;99.90;;;;;;5100464;28;20462;-82
2021/01/29 07:42:19;;;;;;;2.20;0.60;;;11.10;99.90;;;;;;5049516;28;20806;-82
2021/01/29 07:44:55;;;;;;;2.83;0.70;;;11.20;99.90;;;;;;5086921;28;21026;-82
2021/01/29 07:47:47;;;;;;;2.00;0.50;;;11.20;99.90;;;;;;5090066;28;20462;-82
2021/01/29 07:50:24;;;;;;;2.40;0.87;;;11.20;99.90;;;;;;5103788;28;20477;-81
2021/01/29 07:53:01;;;;;;;2.97;0.80;;;11.20;99.90;;;;;;5101508;28;20447;-82
2021/01/29 07:55:29;;;;;;;3.47;0.90;;;11.30;99.90;;;;;;5099318;28;20452;-79
2021/01/29 07:58:19;;;;;;;2.93;0.57;;;11.30;99.90;;;;;;5103034;28;20478;-82
2021/01/29 08:01:12;;;;;;;2.07;0.60;;;11.20;99.90;;;;;;5104385;28;20497;-84
2021/01/29 08:04:24;;;;;;;6.50;0.63;;;11.20;99.90;;;;;;5098201;28;20437;-80
2021/01/29 08:06:59;;;;;;;2.60;0.70;;;11.40;99.90;;;;;;5032746;28;20499;-80
2021/01/29 08:09:28;;;;;;;1.90;0.50;;;11.40;99.90;;;;;;5035384;28;21077;-82
2021/01/29 08:11:58;;;;;;;2.00;0.60;;;11.40;99.90;;;;;;5079801;28;20443;-82
2021/01/29 08:14:48;;;;;;;2.43;0.57;;;11.40;99.90;;;;;;5090820;28;20786;-82
2021/01/29 08:17:28;;;;;;;2.40;0.80;;;11.50;99.90;;;;;;5070157;28;20985;-82
2021/01/29 08:20:41;;;;;;;2.37;0.60;;;11.60;99.90;;;;;;5099472;28;20491;-82
2021/01/29 08:23:18;;;;;;;2.00;0.60;;;11.60;99.90;;;;;;5093426;28;20486;-83
2021/01/29 08:26:11;;;;;;;2.30;0.67;;;11.60;99.90;;;;;;5117440;28;20479;-82
2021/01/29 08:29:04;;;;;;;2.77;0.70;;;11.60;99.90;;;;;;5112844;28;20494;-80
2021/01/29 08:32:08;;;;;;;2.43;0.60;;;11.70;99.90;;;;;;5054928;28;20577;-81
2021/01/29 08:35:07;;;;;;;2.37;0.70;;;11.70;99.90;;;;;;5114606;28;20414;-82
2021/01/29 08:37:42;;;;;;;2.20;0.60;;;11.70;99.90;;;;;;5114751;28;20459;-81
2021/01/29 08:40:25;;;;;;;2.53;0.77;;;11.70;99.90;;;;;;5114911;28;20477;-81
2021/01/29 08:43:20;;;;;;;2.40;0.70;;;11.60;99.90;;;;;;5110318;28;20518;-81
2021/01/29 08:45:59;;;;;;;2.73;0.90;;;11.60;99.90;;;;;;5109445;28;20554;-81
2021/01/29 08:48:37;;;;;;;2.90;1.20;;;11.70;99.90;;;;;;5108856;28;20454;-81
2021/01/29 08:51:17;;;;;;;3.17;0.87;;;11.70;99.90;;;;;;5108937;28;20435;-81
2021/01/29 08:54:07;;;;;;;3.53;0.80;;;11.70;99.90;;;;;;5107196;28;20450;-82
2021/01/29 08:56:44;;;;;;;9.33;2.87;;;11.70;99.90;;;;;;5097556;28;20471;-82
2021/01/29 08:59:15;;;;;;;3.60;1.20;;;11.70;99.90;;;;;;5101061;28;20512;-83
2021/01/29 09:01:54;;;;;;;2.83;0.60;;;11.50;99.90;;;;;;5093784;28;20505;-82
2021/01/29 09:04:30;;;;;;;3.87;0.83;;;11.60;99.90;;;;;;5098674;28;20462;-82
2021/01/29 09:07:05;;;;;;;1.90;0.50;;;11.60;99.90;;;;;;5104784;28;20475;-83
2021/01/29 09:09:38;;;;;;;3.37;0.63;;;11.60;99.90;;;;;;5100179;28;20496;-83
2021/01/29 09:12:16;;;;;;;2.53;0.70;;;11.60;99.90;;;;;;5089730;28;20415;-82
2021/01/29 09:14:51;;;;;;;3.53;0.83;;;11.70;99.90;;;;;;5093870;28;20482;-81
2021/01/29 09:17:22;;;;;;;2.40;0.60;;;11.80;99.90;;;;;;5094725;28;20531;-81
2021/01/29 09:19:56;;;;;;;2.20;0.60;;;11.80;99.90;;;;;;5094849;28;20574;-82
2021/01/29 09:22:26;;;;;;;3.93;0.80;;;11.80;99.90;;;;;;5083041;28;20459;-81
2021/01/29 09:25:02;;;;;;;2.20;0.80;;;11.70;99.90;;;;;;5094499;28;20443;-80
2021/01/29 09:27:56;;;;;;;2.40;0.80;;;11.60;99.90;;;;;;5085056;28;20487;-81
2021/01/29 09:30:32;;;;;;;2.93;0.70;;;11.70;99.90;;;;;;5095101;28;20444;-82
2021/01/29 09:33:10;;;;;;;4.10;1.00;;;11.60;99.90;;;;;;5091626;28;20451;-80
2021/01/29 09:35:48;;;;;;;2.83;0.93;;;11.70;99.90;;;;;;5102876;28;20481;-82
2021/01/29 09:38:18;;;;;;;3.53;1.00;;;11.80;99.90;;;;;;5104941;28;20429;-82
2021/01/29 09:41:15;;;;;;;2.93;0.80;;;11.90;99.90;;;;;;5090236;28;20489;-82
2021/01/29 09:44:02;;;;;;;2.43;0.77;;;12.10;99.90;;;;;;5093734;28;20534;-84
2021/01/29 09:46:31;;;;;;;4.10;0.97;;;12.10;99.90;;;;;;5092309;28;20509;-80
2021/01/29 09:49:06;;;;;;;4.30;0.90;;;12.10;99.90;;;;;;5097970;28;20528;-81
2021/01/29 09:52:00;;;;;;;3.63;1.20;;;12.10;99.90;;;;;;5096463;28;20451;-81
2021/01/29 09:54:46;;;;;;;4.20;0.97;;;12.30;99.90;;;;;;5085075;28;20443;-82
2021/01/29 09:57:18;;;;;;;2.90;1.00;;;12.50;99.90;;;;;;5098434;28;20532;-82
2021/01/29 09:59:55;;;;;;;4.13;1.00;;;12.60;99.90;;;;;;5096186;28;20490;-81
2021/01/29 10:02:32;;;;;;;4.20;1.10;;;12.70;99.90;;;;;;5098702;28;20484;-79
2021/01/29 10:05:11;;;;;;;5.60;1.13;;;12.80;99.90;;;;;;5107311;28;20515;-81
2021/01/29 10:07:45;;;;;;;3.73;1.53;;;12.70;99.90;;;;;;5098212;28;20507;-81
2021/01/29 10:10:17;;;;;;;4.87;1.13;;;12.80;99.90;;;;;;5079712;28;20425;-80
2021/01/29 10:12:54;;;;;;;7.27;0.93;;;12.70;99.90;;;;;;5088138;28;20438;-82
2021/01/29 10:15:24;;;;;;;3.77;1.17;;;12.60;99.90;;;;;;5100396;28;20421;-80
2021/01/29 10:17:58;;;;;;;5.13;1.30;;;12.50;99.90;;;;;;5085260;28;20877;-81
2021/01/29 10:20:30;;;;;;;6.53;1.63;;;12.50;99.90;;;;;;5099146;28;20463;-82
2021/01/29 10:23:31;;;;;;;3.80;1.20;;;12.30;99.90;;;;;;5086289;28;20430;-83
2021/01/29 10:26:13;;;;;;;3.40;1.00;;;12.20;99.90;;;;;;5073356;28;20452;-84
2021/01/29 10:29:01;;;;;;;3.20;1.53;;;12.10;99.90;;;;;;5081574;28;20485;-84
2021/01/29 10:31:37;;;;;;;5.93;2.30;;;11.80;99.90;;;;;;5080334;28;20516;-83
2021/01/29 10:34:23;;;;;;;6.60;1.40;;;11.90;99.90;;;;;;5103171;28;20443;-83
2021/01/29 10:37:10;;;;;;;4.70;1.10;;;11.80;99.90;;;;;;5106088;28;20498;-84
2021/01/29 10:39:52;;;;;;;6.07;0.90;;;11.80;99.90;;;;;;5100232;28;20503;-84
2021/01/29 10:42:24;;;;;;;7.47;2.07;;;11.90;99.90;;;;;;5089843;28;20434;-84
2021/01/29 10:44:52;;;;;;;6.27;1.83;;;11.90;99.90;;;;;;5088897;28;20448;-81
2021/01/29 10:47:28;;;;;;;7.17;1.93;;;12.00;99.90;;;;;;5097169;28;20471;-84
2021/01/29 10:49:59;;;;;;;7.63;2.63;;;12.10;99.90;;;;;;5103593;28;20532;-81
2021/01/29 10:52:38;;;;;;;4.07;1.87;;;12.10;99.90;;;;;;5094498;28;20801;-83
2021/01/29 10:55:15;;;;;;;5.70;1.77;;;12.20;99.90;;;;;;5079973;28;20462;-78
2021/01/29 10:57:47;;;;;;;3.93;1.10;;;12.30;99.90;;;;;;5081753;28;20630;-78
2021/01/29 11:00:16;;;;;;;5.03;2.43;;;12.40;99.90;;;;;;5087415;28;20479;-80
2021/01/29 11:02:48;;;;;;;9.63;1.77;;;12.50;99.90;;;;;;5105918;28;20496;-77
2021/01/29 11:05:22;;;;;;;3.53;1.23;;;12.50;99.90;;;;;;5105505;28;20459;-82
2021/01/29 11:07:52;;;;;;;4.87;1.40;;;12.70;99.90;;;;;;5100337;28;20529;-78
2021/01/29 11:10:31;;;;;;;5.13;1.67;;;12.60;99.90;;;;;;5103526;28;20443;-83
2021/01/29 11:13:02;;;;;;;8.20;2.00;;;12.60;99.90;;;;;;5107973;22;20506;-79
2021/01/29 11:15:35;;;;;;;6.60;1.80;;;12.50;99.90;;;;;;5096889;28;20473;-81
2021/01/29 11:18:12;;;;;;;7.03;2.00;;;12.40;99.90;;;;;;5078583;28;20451;-85
2021/01/29 11:20:40;;;;;;;7.33;1.97;;;12.40;99.90;;;;;;5095231;28;20461;-81
2021/01/29 11:23:21;;;;;;;5.70;1.53;;;12.20;99.90;;;;;;5082415;28;20516;-81
2021/01/29 11:26:10;;;;;;;5.27;1.60;;;12.20;99.90;;;;;;5073068;28;20840;-79
2021/01/29 11:28:53;;;;;;;5.40;1.27;;;12.30;99.90;;;;;;5093383;28;20479;-83
2021/01/29 11:31:37;;;;;;;8.77;3.00;;;12.30;99.90;;;;;;5079159;28;20857;-81
2021/01/29 11:34:06;;;;;;;9.13;2.57;;;12.30;99.90;;;;;;5081805;28;20450;-84
2021/01/29 11:36:37;;;;;;;5.97;2.03;;;12.30;99.90;;;;;;5093106;28;20425;-82
2021/01/29 11:39:12;;;;;;;7.33;1.97;;;12.30;99.90;;;;;;5091920;28;20479;-85
2021/01/29 11:41:52;;;;;;;6.80;2.83;;;12.30;99.90;;;;;;5092827;28;20490;-84
2021/01/29 11:44:27;;;;;;;7.73;1.90;;;12.30;99.90;;;;;;5091425;28;20489;-83
2021/01/29 11:47:01;;;;;;;6.10;1.57;;;12.40;99.90;;;;;;5092290;28;20454;-81
2021/01/29 11:49:33;;;;;;;7.83;2.53;;;12.40;99.90;;;;;;5080706;28;20475;-84
2021/01/29 11:52:10;;;;;;;5.90;2.20;;;12.50;99.90;;;;;;5085041;28;20433;-79
2021/01/29 11:54:45;;;;;;;4.83;1.47;;;12.50;99.90;;;;;;5091797;28;20955;-79
2021/01/29 11:57:16;;;;;;;7.10;1.67;;;12.50;99.90;;;;;;5079404;28;20820;-79
2021/01/29 11:59:52;;;;;;;4.33;1.53;;;12.50;99.90;;;;;;5081809;28;21090;-80
2021/01/29 12:02:31;;;;;;;4.67;1.20;;;12.40;99.90;;;;;;5098620;28;20443;-80
2021/01/29 12:05:17;;;;;;;5.50;1.80;;;12.60;99.90;;;;;;5095951;28;20498;-80
2021/01/29 12:07:47;;;;;;;5.20;1.43;;;12.70;99.90;;;;;;5093681;28;20442;-80
2021/01/29 12:10:22;;;;;;;5.00;1.33;;;12.70;99.90;;;;;;5098122;28;20431;-81
2021/01/29 12:12:55;;;;;;;8.60;1.40;;;12.70;99.90;;;;;;5083479;28;20442;-79
2021/01/29 12:15:26;;;;;;;5.77;1.67;;;12.70;99.90;;;;;;5097582;28;20447;-81
2021/01/29 12:17:56;;;;;;;3.40;1.40;;;12.70;99.90;;;;;;5088183;28;20462;-82
2021/01/29 12:20:28;;;;;;;5.87;1.10;;;12.50;99.90;;;;;;5106147;28;20474;-82
2021/01/29 12:23:07;;;;;;;7.40;1.23;;;12.50;99.90;;;;;;5102216;28;20447;-81
2021/01/29 12:25:49;;;;;;;3.80;1.20;;;12.60;99.90;;;;;;5096164;28;20509;-81
2021/01/29 12:28:23;;;;;;;4.00;1.00;;;12.50;99.90;;;;;;5091649;28;20471;-81
2021/01/29 12:31:03;;;;;;;4.23;1.23;;;12.60;99.90;;;;;;5086473;28;20481;-79
2021/01/29 12:33:32;;;;;;;5.97;2.00;;;12.70;99.90;;;;;;5093595;28;20938;-84
2021/01/29 12:36:02;;;;;;;3.43;0.90;;;12.80;99.90;;;;;;5097821;28;20451;-82
2021/01/29 12:38:38;;;;;;;5.40;1.30;;;12.80;99.90;;;;;;5095583;28;20525;-83
2021/01/29 12:41:13;;;;;;;3.50;0.90;;;12.90;99.90;;;;;;5085794;28;21096;-80
2021/01/29 12:43:53;;;;;;;4.27;1.00;;;12.70;99.90;;;;;;5087608;28;20968;-84
2021/01/29 12:46:25;;;;;;;4.70;1.20;;;12.70;99.90;;;;;;5087251;28;20949;-82
2021/01/29 12:49:03;;;;;;;8.47;1.37;;;12.70;99.90;;;;;;5082244;28;20452;-88
2021/01/29 12:51:36;;;;;;;3.97;1.17;;;12.60;99.90;;;;;;5082539;28;20609;-87
2021/01/29 12:54:08;;;;;;;4.97;1.33;;;12.40;99.90;;;;;;5088266;28;20532;-85
2021/01/29 12:57:06;;;;;;;4.60;1.37;;;12.40;99.90;;;;;;5080385;28;20430;-81
2021/01/29 12:59:43;;;;;;;3.80;1.30;;;12.40;99.90;;;;;;5086311;28;20471;-83
2021/01/29 13:02:27;;;;;;;4.50;1.00;;;12.40;99.90;;;;;;5101647;28;20447;-86
2021/01/29 13:05:01;;;;;;;6.60;1.43;;;12.50;99.90;;;;;;5103703;28;20457;-83
2021/01/29 13:07:31;;;;;;;4.47;1.17;;;12.50;99.90;;;;;;5103367;28;20535;-85
2021/01/29 13:10:19;;;;;;;3.90;1.10;;;12.60;99.90;;;;;;5101112;28;20520;-81
2021/01/29 13:12:55;;;;;;;6.30;2.00;;;12.50;99.90;;;;;;5088927;28;20444;-85
2021/01/29 13:15:36;;;;;;;3.10;0.80;;;12.50;99.90;;;;;;5080048;28;20483;-83
2021/01/29 13:18:06;;;;;;;3.90;1.23;;;12.60;99.90;;;;;;5094698;28;20512;-86
2021/01/29 13:20:35;;;;;;;3.17;1.03;;;12.50;99.90;;;;;;5105161;28;20499;-81
2021/01/29 13:23:25;;;;;;;4.07;1.07;;;12.50;99.90;;;;;;5095601;28;20465;-84
2021/01/29 13:26:01;;;;;;;3.10;0.87;;;12.40;99.90;;;;;;5105596;28;20517;-85
2021/01/29 13:28:30;;;;;;;3.13;0.70;;;12.30;99.90;;;;;;5088466;28;20476;-78
2021/01/29 13:31:11;;;;;;;2.67;0.70;;;12.30;99.90;;;;;;5083582;28;20452;-78
2021/01/29 13:33:46;;;;;;;2.70;0.90;;;12.10;99.90;;;;;;5090042;28;20448;-78
2021/01/29 13:36:20;;;;;;;4.67;1.20;;;12.10;99.90;;;;;;5074465;28;20976;-79
2021/01/29 13:38:48;;;;;;;4.33;1.33;;;12.10;99.90;;;;;;5089700;28;20952;-78
2021/01/29 13:41:18;;;;;;;2.10;0.60;;;12.20;99.90;;;;;;5071999;28;20568;-81
2021/01/29 13:43:46;;;;;;;3.70;1.67;;;12.10;99.90;;;;;;5091029;28;20506;-80
2021/01/29 13:46:25;;;;;;;5.03;1.10;;;12.10;99.90;;;;;;5095290;28;20503;-84
2021/01/29 13:49:14;;;;;;;3.80;1.23;;;12.20;99.90;;;;;;5099165;28;20435;-84